sensor_id;sensor_type;location;lat;lon;timestamp;temperature;humidity
31129;DHT22;17777;48.770;8.944;2023-09-19T00:00:34;23.30;52.20
31129;DHT22;17777;48.770;8.944;2023-09-19T00:03:01;23.30;52.20
31129;DHT22;17777;48.770;8.944;2023-09-19T00:05:28;23.30;52.30
31129;DHT22;17777;48.770;8.944;2023-09-19T00:07:56;23.20;52.30
31129;DHT22;17777;48.770;8.944;2023-09-19T00:10:26;23.20;52.40
31129;DHT22;17777;48.770;8.944;2023-09-19T00:12:57;23.20;52.40
31129;DHT22;17777;48.770;8.944;2023-09-19T00:15:25;23.20;52.40
31129;DHT22;17777;48.770;8.944;2023-09-19T00:17:57;23.20;52.50
31129;DHT22;17777;48.770;8.944;2023-09-19T00:20:23;23.10;52.60
31129;DHT22;17777;48.770;8.944;2023-09-19T00:22:50;23.10;52.50
31129;DHT22;17777;48.770;8.944;2023-09-19T00:25:20;23.10;52.60
31129;DHT22;17777;48.770;8.944;2023-09-19T00:27:47;23.10;52.70
31129;DHT22;17777;48.770;8.944;2023-09-19T00:30:17;23.20;52.70
31129;DHT22;17777;48.770;8.944;2023-09-19T00:32:50;23.20;52.70
31129;DHT22;17777;48.770;8.944;2023-09-19T00:35:21;23.20;52.80
31129;DHT22;17777;48.770;8.944;2023-09-19T00:37:50;23.20;52.70
31129;DHT22;17777;48.770;8.944;2023-09-19T00:40:16;23.20;52.60
31129;DHT22;17777;48.770;8.944;2023-09-19T00:42:44;23.10;52.50
31129;DHT22;17777;48.770;8.944;2023-09-19T00:45:12;23.20;52.70
31129;DHT22;17777;48.770;8.944;2023-09-19T00:47:51;23.20;52.70
31129;DHT22;17777;48.770;8.944;2023-09-19T00:50:19;23.20;52.80
31129;DHT22;17777;48.770;8.944;2023-09-19T00:52:47;23.20;52.60
31129;DHT22;17777;48.770;8.944;2023-09-19T00:55:15;23.20;52.60
31129;DHT22;17777;48.770;8.944;2023-09-19T00:57:45;23.20;52.60
31129;DHT22;17777;48.770;8.944;2023-09-19T01:00:12;23.30;52.60
31129;DHT22;17777;48.770;8.944;2023-09-19T01:02:44;23.30;52.60
31129;DHT22;17777;48.770;8.944;2023-09-19T01:05:13;23.30;52.60
31129;DHT22;17777;48.770;8.944;2023-09-19T01:07:40;23.30;52.50
31129;DHT22;17777;48.770;8.944;2023-09-19T01:10:17;23.30;52.40
31129;DHT22;17777;48.770;8.944;2023-09-19T01:13:06;23.30;52.50
31129;DHT22;17777;48.770;8.944;2023-09-19T01:15:50;23.30;52.70
31129;DHT22;17777;48.770;8.944;2023-09-19T01:21:51;23.30;52.40
31129;DHT22;17777;48.770;8.944;2023-09-19T01:30:36;23.20;52.50
31129;DHT22;17777;48.770;8.944;2023-09-19T01:33:06;23.20;52.40
31129;DHT22;17777;48.770;8.944;2023-09-19T01:35:33;23.20;52.40
31129;DHT22;17777;48.770;8.944;2023-09-19T01:37:59;23.20;52.40
31129;DHT22;17777;48.770;8.944;2023-09-19T01:40:26;23.20;52.40
31129;DHT22;17777;48.770;8.944;2023-09-19T01:43:12;23.20;52.30
31129;DHT22;17777;48.770;8.944;2023-09-19T01:46:04;23.30;52.40
31129;DHT22;17777;48.770;8.944;2023-09-19T01:54:33;23.20;52.20
31129;DHT22;17777;48.770;8.944;2023-09-19T02:00:03;23.20;52.40
31129;DHT22;17777;48.770;8.944;2023-09-19T02:02:44;23.20;52.40
31129;DHT22;17777;48.770;8.944;2023-09-19T02:05:13;23.20;52.40
31129;DHT22;17777;48.770;8.944;2023-09-19T02:07:48;23.10;52.40
31129;DHT22;17777;48.770;8.944;2023-09-19T02:10:16;23.10;52.30
31129;DHT22;17777;48.770;8.944;2023-09-19T02:12:42;23.10;52.30
31129;DHT22;17777;48.770;8.944;2023-09-19T02:15:08;23.10;52.40
31129;DHT22;17777;48.770;8.944;2023-09-19T02:17:34;23.10;52.40
31129;DHT22;17777;48.770;8.944;2023-09-19T02:20:00;23.10;53.00
31129;DHT22;17777;48.770;8.944;2023-09-19T02:22:27;23.00;52.30
31129;DHT22;17777;48.770;8.944;2023-09-19T02:24:53;23.00;52.30
31129;DHT22;17777;48.770;8.944;2023-09-19T02:27:19;23.00;52.30
31129;DHT22;17777;48.770;8.944;2023-09-19T02:29:45;23.00;52.40
31129;DHT22;17777;48.770;8.944;2023-09-19T02:32:11;23.00;52.40
31129;DHT22;17777;48.770;8.944;2023-09-19T02:34:37;23.00;52.40
31129;DHT22;17777;48.770;8.944;2023-09-19T02:37:05;23.00;52.40
31129;DHT22;17777;48.770;8.944;2023-09-19T02:39:32;23.00;52.40
31129;DHT22;17777;48.770;8.944;2023-09-19T02:41:58;22.90;52.40
31129;DHT22;17777;48.770;8.944;2023-09-19T02:44:24;23.00;52.50
31129;DHT22;17777;48.770;8.944;2023-09-19T02:46:50;22.90;52.50
31129;DHT22;17777;48.770;8.944;2023-09-19T02:49:16;22.90;52.50
31129;DHT22;17777;48.770;8.944;2023-09-19T02:51:44;22.90;52.50
31129;DHT22;17777;48.770;8.944;2023-09-19T02:54:11;22.90;52.60
31129;DHT22;17777;48.770;8.944;2023-09-19T02:56:37;22.90;52.60
31129;DHT22;17777;48.770;8.944;2023-09-19T02:59:03;22.80;52.60
31129;DHT22;17777;48.770;8.944;2023-09-19T03:01:29;22.80;52.60
31129;DHT22;17777;48.770;8.944;2023-09-19T03:03:55;22.80;52.70
31129;DHT22;17777;48.770;8.944;2023-09-19T03:06:21;22.90;52.70
31129;DHT22;17777;48.770;8.944;2023-09-19T03:08:49;22.90;52.70
31129;DHT22;17777;48.770;8.944;2023-09-19T03:11:18;22.90;52.60
31129;DHT22;17777;48.770;8.944;2023-09-19T03:13:52;22.90;52.60
31129;DHT22;17777;48.770;8.944;2023-09-19T03:16:19;23.00;52.70
31129;DHT22;17777;48.770;8.944;2023-09-19T03:18:48;22.90;52.60
31129;DHT22;17777;48.770;8.944;2023-09-19T03:21:16;23.00;52.60
31129;DHT22;17777;48.770;8.944;2023-09-19T03:23:43;23.00;52.60
31129;DHT22;17777;48.770;8.944;2023-09-19T03:26:12;23.00;52.60
31129;DHT22;17777;48.770;8.944;2023-09-19T03:28:40;23.00;52.60
31129;DHT22;17777;48.770;8.944;2023-09-19T03:31:07;22.90;52.50
31129;DHT22;17777;48.770;8.944;2023-09-19T03:33:35;22.90;52.50
31129;DHT22;17777;48.770;8.944;2023-09-19T03:36:02;22.90;52.60
31129;DHT22;17777;48.770;8.944;2023-09-19T03:38:32;22.90;52.60
31129;DHT22;17777;48.770;8.944;2023-09-19T03:41:00;22.90;52.70
31129;DHT22;17777;48.770;8.944;2023-09-19T03:43:27;22.90;52.70
31129;DHT22;17777;48.770;8.944;2023-09-19T03:45:53;22.80;52.70
31129;DHT22;17777;48.770;8.944;2023-09-19T03:48:23;22.80;52.80
31129;DHT22;17777;48.770;8.944;2023-09-19T03:50:50;22.80;52.90
31129;DHT22;17777;48.770;8.944;2023-09-19T03:53:18;22.80;52.90
31129;DHT22;17777;48.770;8.944;2023-09-19T03:55:45;22.80;52.90
31129;DHT22;17777;48.770;8.944;2023-09-19T03:58:11;22.80;53.00
31129;DHT22;17777;48.770;8.944;2023-09-19T04:00:38;22.80;53.00
31129;DHT22;17777;48.770;8.944;2023-09-19T04:03:04;22.80;53.00
31129;DHT22;17777;48.770;8.944;2023-09-19T04:05:32;22.80;53.10
31129;DHT22;17777;48.770;8.944;2023-09-19T04:07:59;22.80;53.20
31129;DHT22;17777;48.770;8.944;2023-09-19T04:10:25;22.80;53.10
31129;DHT22;17777;48.770;8.944;2023-09-19T04:12:54;22.80;53.20
31129;DHT22;17777;48.770;8.944;2023-09-19T04:15:22;22.80;53.30
31129;DHT22;17777;48.770;8.944;2023-09-19T04:17:51;22.80;53.20
31129;DHT22;17777;48.770;8.944;2023-09-19T04:20:20;22.90;53.20
31129;DHT22;17777;48.770;8.944;2023-09-19T04:22:47;22.90;53.20
31129;DHT22;17777;48.770;8.944;2023-09-19T04:25:13;22.90;53.10
31129;DHT22;17777;48.770;8.944;2023-09-19T04:27:39;22.90;53.00
31129;DHT22;17777;48.770;8.944;2023-09-19T04:30:07;23.00;53.10
31129;DHT22;17777;48.770;8.944;2023-09-19T04:32:37;23.00;53.10
31129;DHT22;17777;48.770;8.944;2023-09-19T04:35:09;23.00;53.00
31129;DHT22;17777;48.770;8.944;2023-09-19T04:37:40;22.90;53.10
31129;DHT22;17777;48.770;8.944;2023-09-19T04:40:10;23.00;53.30
31129;DHT22;17777;48.770;8.944;2023-09-19T04:42:43;23.00;53.40
31129;DHT22;17777;48.770;8.944;2023-09-19T04:45:10;23.00;53.30
31129;DHT22;17777;48.770;8.944;2023-09-19T04:47:37;23.00;53.40
31129;DHT22;17777;48.770;8.944;2023-09-19T04:50:13;23.00;53.50
31129;DHT22;17777;48.770;8.944;2023-09-19T04:52:40;23.00;53.80
31129;DHT22;17777;48.770;8.944;2023-09-19T04:57:39;23.10;53.60
31129;DHT22;17777;48.770;8.944;2023-09-19T05:00:05;23.10;53.60
31129;DHT22;17777;48.770;8.944;2023-09-19T05:02:37;23.10;53.60
31129;DHT22;17777;48.770;8.944;2023-09-19T05:05:07;23.20;53.60
31129;DHT22;17777;48.770;8.944;2023-09-19T05:07:34;23.20;53.70
31129;DHT22;17777;48.770;8.944;2023-09-19T05:10:01;23.20;53.50
31129;DHT22;17777;48.770;8.944;2023-09-19T05:12:27;23.20;53.60
31129;DHT22;17777;48.770;8.944;2023-09-19T05:14:53;23.20;53.50
31129;DHT22;17777;48.770;8.944;2023-09-19T05:17:18;23.20;53.50
31129;DHT22;17777;48.770;8.944;2023-09-19T05:19:44;23.20;53.70
31129;DHT22;17777;48.770;8.944;2023-09-19T05:22:11;23.20;53.60
31129;DHT22;17777;48.770;8.944;2023-09-19T05:24:38;23.20;53.60
31129;DHT22;17777;48.770;8.944;2023-09-19T05:27:04;23.30;53.70
31129;DHT22;17777;48.770;8.944;2023-09-19T05:29:33;23.30;53.70
31129;DHT22;17777;48.770;8.944;2023-09-19T05:31:59;23.30;53.90
31129;DHT22;17777;48.770;8.944;2023-09-19T05:34:25;23.30;53.80
31129;DHT22;17777;48.770;8.944;2023-09-19T05:36:54;23.30;53.70
31129;DHT22;17777;48.770;8.944;2023-09-19T05:39:20;23.30;53.70
31129;DHT22;17777;48.770;8.944;2023-09-19T05:41:46;23.30;53.60
31129;DHT22;17777;48.770;8.944;2023-09-19T05:44:13;23.20;53.50
31129;DHT22;17777;48.770;8.944;2023-09-19T05:46:39;23.20;53.40
31129;DHT22;17777;48.770;8.944;2023-09-19T05:49:05;23.10;53.40
31129;DHT22;17777;48.770;8.944;2023-09-19T05:51:31;23.00;53.40
31129;DHT22;17777;48.770;8.944;2023-09-19T05:53:57;23.00;53.50
31129;DHT22;17777;48.770;8.944;2023-09-19T05:56:23;22.90;53.50
31129;DHT22;17777;48.770;8.944;2023-09-19T05:58:49;22.90;53.60
31129;DHT22;17777;48.770;8.944;2023-09-19T06:01:17;22.90;53.80
31129;DHT22;17777;48.770;8.944;2023-09-19T06:03:43;22.80;53.80
31129;DHT22;17777;48.770;8.944;2023-09-19T06:06:09;22.80;53.80
31129;DHT22;17777;48.770;8.944;2023-09-19T06:08:35;22.80;53.90
31129;DHT22;17777;48.770;8.944;2023-09-19T06:11:01;22.80;54.00
31129;DHT22;17777;48.770;8.944;2023-09-19T06:13:30;22.70;54.00
31129;DHT22;17777;48.770;8.944;2023-09-19T06:15:56;22.70;54.20
31129;DHT22;17777;48.770;8.944;2023-09-19T06:18:22;22.80;54.00
31129;DHT22;17777;48.770;8.944;2023-09-19T06:20:52;22.70;53.80
31129;DHT22;17777;48.770;8.944;2023-09-19T06:23:17;22.70;53.80
31129;DHT22;17777;48.770;8.944;2023-09-19T06:25:45;22.60;53.70
31129;DHT22;17777;48.770;8.944;2023-09-19T06:28:11;22.60;53.70
31129;DHT22;17777;48.770;8.944;2023-09-19T06:30:40;22.60;53.80
31129;DHT22;17777;48.770;8.944;2023-09-19T06:33:06;22.50;53.80
31129;DHT22;17777;48.770;8.944;2023-09-19T06:35:35;22.50;53.80
31129;DHT22;17777;48.770;8.944;2023-09-19T06:38:04;22.50;54.00
31129;DHT22;17777;48.770;8.944;2023-09-19T06:40:31;22.40;54.00
31129;DHT22;17777;48.770;8.944;2023-09-19T06:42:57;22.40;54.00
31129;DHT22;17777;48.770;8.944;2023-09-19T06:45:23;22.40;54.20
31129;DHT22;17777;48.770;8.944;2023-09-19T06:47:52;22.40;54.10
31129;DHT22;17777;48.770;8.944;2023-09-19T06:50:20;22.50;54.20
31129;DHT22;17777;48.770;8.944;2023-09-19T06:52:52;22.50;54.20
31129;DHT22;17777;48.770;8.944;2023-09-19T06:55:21;22.50;54.20
31129;DHT22;17777;48.770;8.944;2023-09-19T06:57:50;22.50;54.20
31129;DHT22;17777;48.770;8.944;2023-09-19T07:00:16;22.60;54.40
31129;DHT22;17777;48.770;8.944;2023-09-19T07:03:01;22.60;54.30
31129;DHT22;17777;48.770;8.944;2023-09-19T07:05:30;22.70;54.50
31129;DHT22;17777;48.770;8.944;2023-09-19T07:07:57;22.60;54.30
31129;DHT22;17777;48.770;8.944;2023-09-19T07:10:29;22.70;54.30
31129;DHT22;17777;48.770;8.944;2023-09-19T07:12:56;22.70;54.30
31129;DHT22;17777;48.770;8.944;2023-09-19T07:15:25;22.80;54.30
31129;DHT22;17777;48.770;8.944;2023-09-19T07:17:55;22.80;54.20
31129;DHT22;17777;48.770;8.944;2023-09-19T07:20:22;22.80;54.30
31129;DHT22;17777;48.770;8.944;2023-09-19T07:22:50;22.80;54.10
31129;DHT22;17777;48.770;8.944;2023-09-19T07:25:16;22.80;54.10
31129;DHT22;17777;48.770;8.944;2023-09-19T07:27:45;22.90;54.20
31129;DHT22;17777;48.770;8.944;2023-09-19T07:30:11;22.80;54.10
31129;DHT22;17777;48.770;8.944;2023-09-19T07:32:40;22.90;54.10
31129;DHT22;17777;48.770;8.944;2023-09-19T07:35:06;22.90;54.20
31129;DHT22;17777;48.770;8.944;2023-09-19T07:37:32;22.90;54.20
31129;DHT22;17777;48.770;8.944;2023-09-19T07:40:05;22.90;54.20
31129;DHT22;17777;48.770;8.944;2023-09-19T07:42:33;22.90;54.30
31129;DHT22;17777;48.770;8.944;2023-09-19T07:45:01;22.90;54.10
31129;DHT22;17777;48.770;8.944;2023-09-19T07:47:27;22.90;54.10
31129;DHT22;17777;48.770;8.944;2023-09-19T07:49:55;22.90;54.10
31129;DHT22;17777;48.770;8.944;2023-09-19T07:52:21;23.00;54.20
31129;DHT22;17777;48.770;8.944;2023-09-19T07:54:48;23.00;54.30
31129;DHT22;17777;48.770;8.944;2023-09-19T07:57:15;23.00;54.50
31129;DHT22;17777;48.770;8.944;2023-09-19T07:59:41;23.10;54.70
31129;DHT22;17777;48.770;8.944;2023-09-19T08:02:08;23.10;54.60
31129;DHT22;17777;48.770;8.944;2023-09-19T08:04:35;23.20;54.50
31129;DHT22;17777;48.770;8.944;2023-09-19T08:07:01;23.30;54.30
31129;DHT22;17777;48.770;8.944;2023-09-19T08:09:29;23.40;54.10
31129;DHT22;17777;48.770;8.944;2023-09-19T08:11:59;23.40;53.90
31129;DHT22;17777;48.770;8.944;2023-09-19T08:14:28;23.50;53.80
31129;DHT22;17777;48.770;8.944;2023-09-19T08:16:58;23.50;53.80
31129;DHT22;17777;48.770;8.944;2023-09-19T08:19:24;23.60;53.70
31129;DHT22;17777;48.770;8.944;2023-09-19T08:21:55;23.60;53.70
31129;DHT22;17777;48.770;8.944;2023-09-19T08:24:25;23.70;53.60
31129;DHT22;17777;48.770;8.944;2023-09-19T08:26:54;23.80;53.50
31129;DHT22;17777;48.770;8.944;2023-09-19T08:29:21;23.90;53.50
31129;DHT22;17777;48.770;8.944;2023-09-19T08:31:54;23.90;53.30
31129;DHT22;17777;48.770;8.944;2023-09-19T08:34:21;23.90;52.90
31129;DHT22;17777;48.770;8.944;2023-09-19T08:36:50;24.00;53.00
31129;DHT22;17777;48.770;8.944;2023-09-19T08:39:25;24.10;52.80
31129;DHT22;17777;48.770;8.944;2023-09-19T08:42:01;24.20;52.40
31129;DHT22;17777;48.770;8.944;2023-09-19T08:44:28;24.20;51.80
31129;DHT22;17777;48.770;8.944;2023-09-19T08:47:14;24.20;52.20
31129;DHT22;17777;48.770;8.944;2023-09-19T08:50:15;24.30;52.00
31129;DHT22;17777;48.770;8.944;2023-09-19T08:52:46;24.40;51.20
31129;DHT22;17777;48.770;8.944;2023-09-19T08:55:14;24.40;51.50
31129;DHT22;17777;48.770;8.944;2023-09-19T08:57:49;24.50;51.40
31129;DHT22;17777;48.770;8.944;2023-09-19T09:00:15;24.50;51.30
31129;DHT22;17777;48.770;8.944;2023-09-19T09:02:47;24.50;51.10
31129;DHT22;17777;48.770;8.944;2023-09-19T09:05:14;24.60;50.90
31129;DHT22;17777;48.770;8.944;2023-09-19T09:07:43;24.60;50.90
31129;DHT22;17777;48.770;8.944;2023-09-19T09:10:09;24.70;50.50
31129;DHT22;17777;48.770;8.944;2023-09-19T09:12:35;24.80;50.60
31129;DHT22;17777;48.770;8.944;2023-09-19T09:15:06;24.80;50.30
31129;DHT22;17777;48.770;8.944;2023-09-19T09:17:34;24.90;49.90
31129;DHT22;17777;48.770;8.944;2023-09-19T09:20:00;25.00;50.00
31129;DHT22;17777;48.770;8.944;2023-09-19T09:22:26;25.00;50.00
31129;DHT22;17777;48.770;8.944;2023-09-19T09:24:53;25.00;49.90
31129;DHT22;17777;48.770;8.944;2023-09-19T09:27:24;25.10;49.80
31129;DHT22;17777;48.770;8.944;2023-09-19T09:29:51;25.20;49.60
31129;DHT22;17777;48.770;8.944;2023-09-19T09:32:25;25.20;49.20
31129;DHT22;17777;48.770;8.944;2023-09-19T09:34:56;25.30;49.10
31129;DHT22;17777;48.770;8.944;2023-09-19T09:37:22;25.40;49.20
31129;DHT22;17777;48.770;8.944;2023-09-19T09:40:02;25.40;49.00
31129;DHT22;17777;48.770;8.944;2023-09-19T09:42:45;25.50;48.60
31129;DHT22;17777;48.770;8.944;2023-09-19T09:45:21;25.60;48.80
31129;DHT22;17777;48.770;8.944;2023-09-19T09:48:24;25.60;48.50
31129;DHT22;17777;48.770;8.944;2023-09-19T09:50:57;25.70;47.90
31129;DHT22;17777;48.770;8.944;2023-09-19T09:53:30;25.80;47.90
31129;DHT22;17777;48.770;8.944;2023-09-19T09:56:07;25.90;47.40
31129;DHT22;17777;48.770;8.944;2023-09-19T09:58:49;25.90;47.30
31129;DHT22;17777;48.770;8.944;2023-09-19T10:01:17;26.00;47.00
31129;DHT22;17777;48.770;8.944;2023-09-19T10:03:43;26.00;47.30
31129;DHT22;17777;48.770;8.944;2023-09-19T10:06:14;26.00;47.10
31129;DHT22;17777;48.770;8.944;2023-09-19T10:09:06;26.10;47.10
31129;DHT22;17777;48.770;8.944;2023-09-19T10:11:47;26.10;46.30
31129;DHT22;17777;48.770;8.944;2023-09-19T10:14:25;26.10;46.30
31129;DHT22;17777;48.770;8.944;2023-09-19T10:16:58;26.20;46.10
31129;DHT22;17777;48.770;8.944;2023-09-19T10:19:46;26.30;46.10
31129;DHT22;17777;48.770;8.944;2023-09-19T10:22:23;26.30;46.10
31129;DHT22;17777;48.770;8.944;2023-09-19T10:24:53;26.30;46.20
31129;DHT22;17777;48.770;8.944;2023-09-19T10:27:20;26.40;46.30
31129;DHT22;17777;48.770;8.944;2023-09-19T10:29:51;26.60;46.70
31129;DHT22;17777;48.770;8.944;2023-09-19T10:32:22;26.70;46.00
31129;DHT22;17777;48.770;8.944;2023-09-19T10:34:49;27.00;46.30
31129;DHT22;17777;48.770;8.944;2023-09-19T10:37:17;27.20;46.30
31129;DHT22;17777;48.770;8.944;2023-09-19T10:39:47;27.30;45.20
31129;DHT22;17777;48.770;8.944;2023-09-19T10:42:19;27.40;44.90
31129;DHT22;17777;48.770;8.944;2023-09-19T10:44:51;27.50;44.60
31129;DHT22;17777;48.770;8.944;2023-09-19T10:47:20;27.60;44.60
31129;DHT22;17777;48.770;8.944;2023-09-19T10:49:49;27.70;44.70
31129;DHT22;17777;48.770;8.944;2023-09-19T10:52:19;27.70;43.70
31129;DHT22;17777;48.770;8.944;2023-09-19T10:54:50;27.70;43.40
31129;DHT22;17777;48.770;8.944;2023-09-19T10:57:24;27.70;42.90
31129;DHT22;17777;48.770;8.944;2023-09-19T11:00:06;27.70;41.60
31129;DHT22;17777;48.770;8.944;2023-09-19T11:06:04;27.50;41.60
31129;DHT22;17777;48.770;8.944;2023-09-19T11:09:03;27.40;41.40
31129;DHT22;17777;48.770;8.944;2023-09-19T11:30:40;27.20;39.80
31129;DHT22;17777;48.770;8.944;2023-09-19T11:33:30;27.20;41.00
31129;DHT22;17777;48.770;8.944;2023-09-19T11:41:36;27.20;41.20
31129;DHT22;17777;48.770;8.944;2023-09-19T11:46:52;27.30;41.60
31129;DHT22;17777;48.770;8.944;2023-09-19T11:49:19;27.30;40.90
31129;DHT22;17777;48.770;8.944;2023-09-19T11:51:50;27.40;41.30
31129;DHT22;17777;48.770;8.944;2023-09-19T11:54:20;27.50;41.10
31129;DHT22;17777;48.770;8.944;2023-09-19T11:56:51;27.50;41.00
31129;DHT22;17777;48.770;8.944;2023-09-19T11:59:23;27.60;41.20
31129;DHT22;17777;48.770;8.944;2023-09-19T12:01:57;27.70;41.10
31129;DHT22;17777;48.770;8.944;2023-09-19T12:07:10;27.80;40.90
31129;DHT22;17777;48.770;8.944;2023-09-19T12:09:41;28.00;41.40
31129;DHT22;17777;48.770;8.944;2023-09-19T12:12:10;28.10;41.20
31129;DHT22;17777;48.770;8.944;2023-09-19T12:14:48;28.20;40.50
31129;DHT22;17777;48.770;8.944;2023-09-19T12:17:14;28.30;40.00
31129;DHT22;17777;48.770;8.944;2023-09-19T12:19:52;28.40;40.50
31129;DHT22;17777;48.770;8.944;2023-09-19T12:22:19;28.40;39.60
31129;DHT22;17777;48.770;8.944;2023-09-19T12:24:46;28.50;39.80
31129;DHT22;17777;48.770;8.944;2023-09-19T12:27:12;28.60;39.80
31129;DHT22;17777;48.770;8.944;2023-09-19T12:29:46;28.70;39.70
31129;DHT22;17777;48.770;8.944;2023-09-19T12:32:36;28.80;39.00
31129;DHT22;17777;48.770;8.944;2023-09-19T12:35:06;28.80;37.70
31129;DHT22;17777;48.770;8.944;2023-09-19T12:37:45;28.90;39.40
31129;DHT22;17777;48.770;8.944;2023-09-19T12:40:21;28.90;38.80
31129;DHT22;17777;48.770;8.944;2023-09-19T12:42:49;29.00;39.00
31129;DHT22;17777;48.770;8.944;2023-09-19T12:45:15;29.00;38.80
31129;DHT22;17777;48.770;8.944;2023-09-19T12:48:17;29.00;38.20
31129;DHT22;17777;48.770;8.944;2023-09-19T12:53:42;29.00;37.80
31129;DHT22;17777;48.770;8.944;2023-09-19T12:56:15;28.90;38.20
31129;DHT22;17777;48.770;8.944;2023-09-19T12:58:54;28.90;38.30
31129;DHT22;17777;48.770;8.944;2023-09-19T13:01:28;28.90;37.50
31129;DHT22;17777;48.770;8.944;2023-09-19T13:04:30;29.00;38.30
31129;DHT22;17777;48.770;8.944;2023-09-19T13:06:58;28.90;38.00
31129;DHT22;17777;48.770;8.944;2023-09-19T13:09:27;29.00;38.30
31129;DHT22;17777;48.770;8.944;2023-09-19T13:12:05;29.00;38.40
31129;DHT22;17777;48.770;8.944;2023-09-19T13:15:08;29.10;38.40
31129;DHT22;17777;48.770;8.944;2023-09-19T13:17:49;29.10;38.10
31129;DHT22;17777;48.770;8.944;2023-09-19T13:20:25;29.20;38.00
31129;DHT22;17777;48.770;8.944;2023-09-19T13:22:55;29.20;37.60
31129;DHT22;17777;48.770;8.944;2023-09-19T13:25:26;29.30;38.40
31129;DHT22;17777;48.770;8.944;2023-09-19T13:27:57;29.30;38.10
31129;DHT22;17777;48.770;8.944;2023-09-19T13:30:25;29.40;38.00
31129;DHT22;17777;48.770;8.944;2023-09-19T13:32:52;29.40;38.30
31129;DHT22;17777;48.770;8.944;2023-09-19T13:35:29;29.50;37.90
31129;DHT22;17777;48.770;8.944;2023-09-19T13:37:54;29.60;37.80
31129;DHT22;17777;48.770;8.944;2023-09-19T13:40:20;29.60;37.80
31129;DHT22;17777;48.770;8.944;2023-09-19T13:42:46;29.60;37.70
31129;DHT22;17777;48.770;8.944;2023-09-19T13:45:12;29.70;37.80
31129;DHT22;17777;48.770;8.944;2023-09-19T13:47:39;29.80;37.70
31129;DHT22;17777;48.770;8.944;2023-09-19T13:50:06;29.80;37.10
31129;DHT22;17777;48.770;8.944;2023-09-19T13:52:33;29.80;36.80
31129;DHT22;17777;48.770;8.944;2023-09-19T13:54:59;29.80;36.70
31129;DHT22;17777;48.770;8.944;2023-09-19T13:57:25;29.80;36.80
31129;DHT22;17777;48.770;8.944;2023-09-19T13:59:52;29.80;36.70
31129;DHT22;17777;48.770;8.944;2023-09-19T14:02:22;29.80;36.80
31129;DHT22;17777;48.770;8.944;2023-09-19T14:04:53;29.70;36.40
31129;DHT22;17777;48.770;8.944;2023-09-19T14:07:20;29.70;35.90
31129;DHT22;17777;48.770;8.944;2023-09-19T14:09:46;29.70;36.20
31129;DHT22;17777;48.770;8.944;2023-09-19T14:12:13;29.70;35.70
31129;DHT22;17777;48.770;8.944;2023-09-19T14:14:39;29.60;35.70
31129;DHT22;17777;48.770;8.944;2023-09-19T14:17:05;29.60;35.90
31129;DHT22;17777;48.770;8.944;2023-09-19T14:19:32;29.50;35.90
31129;DHT22;17777;48.770;8.944;2023-09-19T14:21:58;29.50;35.80
31129;DHT22;17777;48.770;8.944;2023-09-19T14:24:25;29.50;35.80
31129;DHT22;17777;48.770;8.944;2023-09-19T14:26:51;29.40;35.60
31129;DHT22;17777;48.770;8.944;2023-09-19T14:29:17;29.40;35.60
31129;DHT22;17777;48.770;8.944;2023-09-19T14:31:43;29.30;35.80
31129;DHT22;17777;48.770;8.944;2023-09-19T14:34:09;29.30;35.70
31129;DHT22;17777;48.770;8.944;2023-09-19T14:36:36;29.30;35.70
31129;DHT22;17777;48.770;8.944;2023-09-19T14:39:02;29.30;35.50
31129;DHT22;17777;48.770;8.944;2023-09-19T14:41:28;29.30;35.50
31129;DHT22;17777;48.770;8.944;2023-09-19T14:43:55;29.30;35.30
31129;DHT22;17777;48.770;8.944;2023-09-19T14:46:21;29.30;35.00
31129;DHT22;17777;48.770;8.944;2023-09-19T14:48:51;29.30;35.10
31129;DHT22;17777;48.770;8.944;2023-09-19T14:51:18;29.20;35.50
31129;DHT22;17777;48.770;8.944;2023-09-19T14:53:45;29.20;35.00
31129;DHT22;17777;48.770;8.944;2023-09-19T14:56:11;29.20;35.00
31129;DHT22;17777;48.770;8.944;2023-09-19T14:58:39;29.20;35.00
31129;DHT22;17777;48.770;8.944;2023-09-19T15:01:09;29.10;34.90
31129;DHT22;17777;48.770;8.944;2023-09-19T15:03:38;29.10;34.60
31129;DHT22;17777;48.770;8.944;2023-09-19T15:06:07;29.10;34.80
31129;DHT22;17777;48.770;8.944;2023-09-19T15:08:37;29.00;34.80
31129;DHT22;17777;48.770;8.944;2023-09-19T15:11:09;29.00;34.70
31129;DHT22;17777;48.770;8.944;2023-09-19T15:13:36;29.00;34.80
31129;DHT22;17777;48.770;8.944;2023-09-19T15:16:06;29.00;34.90
31129;DHT22;17777;48.770;8.944;2023-09-19T15:18:39;28.90;34.40
31129;DHT22;17777;48.770;8.944;2023-09-19T15:21:11;28.80;34.60
31129;DHT22;17777;48.770;8.944;2023-09-19T15:23:39;28.80;34.40
31129;DHT22;17777;48.770;8.944;2023-09-19T15:26:07;28.80;34.80
31129;DHT22;17777;48.770;8.944;2023-09-19T15:28:37;28.70;34.90
31129;DHT22;17777;48.770;8.944;2023-09-19T15:31:08;28.60;35.00
31129;DHT22;17777;48.770;8.944;2023-09-19T15:33:35;28.60;35.00
31129;DHT22;17777;48.770;8.944;2023-09-19T15:36:14;28.60;35.20
31129;DHT22;17777;48.770;8.944;2023-09-19T15:41:19;28.50;35.10
31129;DHT22;17777;48.770;8.944;2023-09-19T15:43:46;28.50;35.30
31129;DHT22;17777;48.770;8.944;2023-09-19T15:46:12;28.50;35.30
31129;DHT22;17777;48.770;8.944;2023-09-19T15:48:39;28.40;35.20
31129;DHT22;17777;48.770;8.944;2023-09-19T15:51:05;28.40;35.30
31129;DHT22;17777;48.770;8.944;2023-09-19T15:56:07;28.30;35.20
31129;DHT22;17777;48.770;8.944;2023-09-19T15:58:33;28.30;35.60
31129;DHT22;17777;48.770;8.944;2023-09-19T16:01:05;28.30;35.70
31129;DHT22;17777;48.770;8.944;2023-09-19T16:03:35;28.30;35.30
31129;DHT22;17777;48.770;8.944;2023-09-19T16:06:12;28.30;35.60
31129;DHT22;17777;48.770;8.944;2023-09-19T16:08:44;28.30;35.10
31129;DHT22;17777;48.770;8.944;2023-09-19T16:11:14;28.30;35.50
31129;DHT22;17777;48.770;8.944;2023-09-19T16:13:41;28.20;35.50
31129;DHT22;17777;48.770;8.944;2023-09-19T16:16:15;28.10;35.40
31129;DHT22;17777;48.770;8.944;2023-09-19T16:18:53;28.10;35.30
31129;DHT22;17777;48.770;8.944;2023-09-19T16:21:32;28.10;35.20
31129;DHT22;17777;48.770;8.944;2023-09-19T16:23:59;28.10;35.50
31129;DHT22;17777;48.770;8.944;2023-09-19T16:26:27;28.00;35.50
31129;DHT22;17777;48.770;8.944;2023-09-19T16:28:56;28.00;35.50
31129;DHT22;17777;48.770;8.944;2023-09-19T16:31:26;27.90;35.60
31129;DHT22;17777;48.770;8.944;2023-09-19T16:33:53;27.90;35.70
31129;DHT22;17777;48.770;8.944;2023-09-19T16:36:20;27.90;35.80
31129;DHT22;17777;48.770;8.944;2023-09-19T16:38:49;27.90;35.80
31129;DHT22;17777;48.770;8.944;2023-09-19T16:41:16;27.80;35.80
31129;DHT22;17777;48.770;8.944;2023-09-19T16:43:42;27.80;35.80
31129;DHT22;17777;48.770;8.944;2023-09-19T16:46:10;27.80;36.00
31129;DHT22;17777;48.770;8.944;2023-09-19T16:48:41;27.80;36.10